Time;durP1;ratioP1;P1;durP2;ratioP2;P2;SDS_P1;SDS_P2;PMS_P1;PMS_P2;Temp;Humidity;BMP_temperature;BMP_pressure;BME280_temperature;BME280_humidity;BME280_pressure;Samples;Min_cycle;Max_cycle;Signal;HPM_P1;HPM_P2
2022/03/09 00:01:47;;;;;;;6.47;2.70;;;;;;;-0.76;100.00;102199.09;10208479;29;20039;-88
2022/03/09 00:06:48;;;;;;;6.40;3.10;;;;;;;-1.23;100.00;102139.63;10224420;29;20476;-88
2022/03/09 00:11:48;;;;;;;8.27;3.75;;;;;;;-1.40;100.00;102116.06;10223741;29;20035;-88
2022/03/09 00:16:50;;;;;;;6.20;3.22;;;;;;;-0.96;100.00;102225.31;10201500;29;20039;-88
2022/03/09 00:21:51;;;;;;;7.50;2.67;;;;;;;-1.44;100.00;102146.03;10183066;29;20053;-88
2022/03/09 00:26:51;;;;;;;4.43;2.70;;;;;;;-1.46;100.00;102156.16;10186034;29;20090;-88
2022/03/09 00:31:52;;;;;;;5.88;3.17;;;;;;;-1.54;100.00;102150.59;10207246;29;20055;-88
2022/03/09 00:36:53;;;;;;;5.63;3.55;;;;;;;-1.87;100.00;102123.03;10191235;29;20040;-88
2022/03/09 00:41:53;;;;;;;8.45;3.30;;;;;;;-1.47;100.00;102197.66;10190571;29;20028;-88
2022/03/09 00:46:54;;;;;;;5.63;3.33;;;;;;;-2.08;100.00;102119.63;10191037;29;20043;-88
2022/03/09 00:51:54;;;;;;;5.28;3.15;;;;;;;-1.99;100.00;102153.00;10191482;29;20073;-88
2022/03/09 00:56:55;;;;;;;5.13;2.72;;;;;;;-2.02;100.00;102167.66;10206583;29;20058;-88
2022/03/09 01:01:55;;;;;;;7.95;3.47;;;;;;;-2.19;100.00;102146.72;10205672;29;20432;-88
2022/03/09 01:06:56;;;;;;;6.20;3.17;;;;;;;-1.90;100.00;102220.50;10221092;29;20053;-88
2022/03/09 01:11:59;;;;;;;5.60;3.45;;;;;;;-2.13;100.00;102186.63;10205350;29;20102;-88
2022/03/09 01:17:00;;;;;;;6.05;3.45;;;;;;;-2.03;100.00;102212.69;10191303;29;20480;-88
2022/03/09 01:22:00;;;;;;;6.30;3.60;;;;;;;-2.40;100.00;102171.94;10189490;29;20024;-88
2022/03/09 01:27:01;;;;;;;7.38;3.58;;;;;;;-2.14;100.00;102230.81;10203849;29;20472;-88
2022/03/09 01:32:01;;;;;;;4.43;2.78;;;;;;;-2.13;100.00;102246.00;10187767;28;20420;-88
2022/03/09 01:37:02;;;;;;;8.30;3.45;;;;;;;-2.09;100.00;102269.91;10189175;29;20035;-88
2022/03/09 01:42:03;;;;;;;6.25;3.80;;;;;;;-3.16;100.00;102067.28;10204616;29;20054;-88
2022/03/09 01:47:04;;;;;;;5.97;3.38;;;;;;;-2.44;100.00;102181.31;10204892;29;20198;-88
2022/03/09 01:52:04;;;;;;;5.88;3.80;;;;;;;-2.52;100.00;102173.03;10204690;29;20035;-87
2022/03/09 01:57:05;;;;;;;8.15;3.58;;;;;;;-2.47;100.00;102184.28;10204610;29;20031;-88
2022/03/09 02:02:05;;;;;;;5.72;3.60;;;;;;;-2.64;100.00;102167.75;10188174;29;20106;-87
2022/03/09 02:07:09;;;;;;;6.55;3.30;;;;;;;-2.62;100.00;102180.28;10187550;29;20480;-88
2022/03/09 02:12:15;;;;;;;6.07;3.67;;;;;;;-2.31;100.00;102221.53;10186942;29;20067;-86
2022/03/09 02:17:17;;;;;;;10.55;4.20;;;;;;;-2.55;100.00;102190.34;10218960;29;20483;-87
2022/03/09 02:22:47;;;;;;;9.48;4.47;;;;;;;-2.27;100.00;102233.78;10187342;29;20027;-87
2022/03/09 02:27:48;;;;;;;8.50;4.03;;;;;;;-2.85;100.00;102158.88;10198421;29;20031;-88
2022/03/09 02:32:49;;;;;;;7.15;3.92;;;;;;;-2.63;100.00;102184.78;10202557;29;20031;-87
2022/03/09 02:37:49;;;;;;;9.25;4.28;;;;;;;-3.00;100.00;102122.50;10219332;29;20035;-88
2022/03/09 02:42:50;;;;;;;8.75;4.72;;;;;;;-2.87;100.00;102144.69;10205115;28;20165;-87
2022/03/09 02:47:50;;;;;;;6.43;3.55;;;;;;;-2.90;100.00;102143.09;10195650;29;20055;-87
2022/03/09 02:52:51;;;;;;;5.68;3.55;;;;;;;-3.42;100.00;102048.00;10194723;29;20053;-87
2022/03/09 02:57:51;;;;;;;7.60;3.90;;;;;;;-2.14;100.00;102255.94;10225295;29;20034;-88
2022/03/09 03:02:52;;;;;;;6.78;3.83;;;;;;;-2.52;100.00;102191.91;10179179;29;20031;-87
2022/03/09 03:07:53;;;;;;;8.13;4.25;;;;;;;-2.42;100.00;102192.81;10185899;29;20035;-87
2022/03/09 03:12:54;;;;;;;7.07;4.32;;;;;;;-2.54;100.00;102166.94;10209757;29;20046;-88
2022/03/09 03:17:54;;;;;;;7.18;4.03;;;;;;;-2.50;100.00;102160.28;10193918;29;20032;-87
2022/03/09 03:22:55;;;;;;;7.90;4.43;;;;;;;-2.25;100.00;102229.94;10209290;29;20032;-88
2022/03/09 03:27:55;;;;;;;7.10;4.22;;;;;;;-2.61;100.00;102173.88;10209863;29;20031;-88
2022/03/09 03:32:56;;;;;;;9.60;4.45;;;;;;;-2.35;100.00;102242.53;10225644;29;20063;-88
2022/03/09 03:37:56;;;;;;;9.27;4.93;;;;;;;-2.77;100.00;102161.75;10201326;29;20166;-87
2022/03/09 03:42:57;;;;;;;10.23;5.65;;;;;;;-2.80;100.00;102145.84;10188267;29;20102;-88
2022/03/09 03:47:57;;;;;;;8.52;4.75;;;;;;;-2.62;100.00;102191.06;10201036;29;20087;-88
2022/03/09 03:52:58;;;;;;;9.77;5.13;;;;;;;-2.44;100.00;102221.75;10217001;28;20035;-88
2022/03/09 03:57:58;;;;;;;8.48;4.25;;;;;;;-2.57;100.00;102199.56;10208794;29;20090;-88
2022/03/09 04:03:00;;;;;;;10.65;4.78;;;;;;;-3.12;100.00;102127.09;10208266;29;20019;-88
2022/03/09 04:08:01;;;;;;;8.45;4.55;;;;;;;-2.96;100.00;102199.38;10223906;29;20087;-87
2022/03/09 04:13:04;;;;;;;6.82;3.75;;;;;;;-3.09;100.00;102195.03;10205972;29;20094;-87
2022/03/09 04:18:04;;;;;;;10.05;5.22;;;;;;;-3.29;100.00;102171.66;10208824;29;20508;-88
2022/03/09 04:23:08;;;;;;;8.68;4.88;;;;;;;-2.97;100.00;102235.41;10223975;29;20078;-88
2022/03/09 04:28:09;;;;;;;11.10;4.80;;;;;;;-3.24;100.00;102191.00;10192510;29;20027;-88
2022/03/09 04:33:10;;;;;;;9.55;5.20;;;;;;;-2.79;100.00;102276.06;10191356;29;20042;-88
2022/03/09 04:38:10;;;;;;;11.35;5.97;;;;;;;-2.82;100.00;102282.59;10223428;29;20045;-88
2022/03/09 04:43:11;;;;;;;11.40;5.60;;;;;;;-3.29;100.00;102201.28;10206967;29;20090;-88
2022/03/09 04:48:11;;;;;;;9.82;5.60;;;;;;;-3.23;100.00;102200.75;10199365;29;20078;-88
2022/03/09 04:53:12;;;;;;;8.95;5.22;;;;;;;-3.76;100.00;102110.13;10199498;29;20148;-89
2022/03/09 04:58:12;;;;;;;11.82;4.95;;;;;;;-3.34;100.00;102176.59;10205297;29;20031;-88
2022/03/09 05:03:13;;;;;;;13.95;6.15;;;;;;;-3.96;100.00;102074.16;10197342;29;20022;-88
2022/03/09 05:08:13;;;;;;;9.15;4.80;;;;;;;-3.29;100.00;102179.75;10196950;29;20130;-88
2022/03/09 05:13:14;;;;;;;9.40;4.97;;;;;;;-3.12;100.00;102216.88;10182684;29;20042;-89
2022/03/09 05:18:15;;;;;;;13.07;5.55;;;;;;;-3.74;100.00;102113.56;10182124;29;20118;-89
2022/03/09 05:23:15;;;;;;;13.60;5.55;;;;;;;-3.50;100.00;102166.28;10198304;29;20040;-89
2022/03/09 05:28:16;;;;;;;10.82;6.00;;;;;;;-3.54;100.00;102171.06;10182064;29;20063;-89
2022/03/09 05:33:16;;;;;;;7.55;5.25;;;;;;;-2.82;100.00;102297.91;10182500;29;20507;-89
2022/03/09 05:38:17;;;;;;;12.30;6.35;;;;;;;-3.26;100.00;102233.38;10197190;29;20420;-89
2022/03/09 05:43:17;;;;;;;10.10;5.20;;;;;;;-2.89;100.00;102284.13;10180449;29;20039;-89
2022/03/09 05:48:18;;;;;;;12.68;5.85;;;;;;;-3.06;100.00;102259.47;10179788;29;20088;-89
2022/03/09 05:53:18;;;;;;;12.63;7.03;;;;;;;-3.18;100.00;102222.78;10165829;29;20038;-89
2022/03/09 05:58:19;;;;;;;13.80;7.18;;;;;;;-3.82;100.00;102123.22;10157693;29;20020;-89
2022/03/09 06:03:19;;;;;;;9.65;5.95;;;;;;;-3.23;100.00;102213.38;10156682;29;20091;-89
2022/03/09 06:08:20;;;;;;;11.02;6.88;;;;;;;-3.41;100.00;102205.91;10166330;29;20031;-89
2022/03/09 06:13:20;;;;;;;12.30;5.63;;;;;;;-2.61;100.00;102324.84;10164730;29;20058;-89
2022/03/09 06:18:21;;;;;;;11.00;6.20;;;;;;;-2.98;100.00;102249.84;10194065;29;20074;-89
2022/03/09 06:23:21;;;;;;;23.85;7.50;;;;;;;-3.41;100.00;102167.31;10164719;29;20110;-89
2022/03/09 06:28:22;;;;;;;10.40;6.30;;;;;;;-2.68;100.00;102263.38;10164229;29;20440;-90
2022/03/09 06:33:22;;;;;;;10.90;6.28;;;;;;;-3.00;100.00;102212.25;10180281;29;20032;-89
2022/03/09 06:38:23;;;;;;;12.10;5.72;;;;;;;-3.16;100.00;102156.16;10179716;29;20047;-89
2022/03/09 06:43:23;;;;;;;21.88;6.93;;;;;;;-2.70;100.00;102206.03;10195328;29;20122;-89
2022/03/09 06:48:24;;;;;;;10.18;5.85;;;;;;;-2.67;100.00;102181.53;10165624;29;20053;-89
2022/03/09 06:53:25;;;;;;;9.18;6.05;;;;;;;-2.18;100.00;102259.06;10180359;29;20091;-89
2022/03/09 06:58:26;;;;;;;9.40;5.75;;;;;;;-1.75;100.00;102287.59;10213708;29;20042;-89
2022/03/09 07:03:28;;;;;;;9.52;5.10;;;;;;;-1.69;100.00;102266.31;10204663;29;20047;-89
2022/03/09 07:08:28;;;;;;;8.00;4.88;;;;;;;-1.36;100.00;102298.47;10180425;29;20035;-89
2022/03/09 07:13:29;;;;;;;10.02;5.28;;;;;;;-1.61;100.00;102222.41;10179654;29;20135;-89
2022/03/09 07:18:30;;;;;;;10.20;6.03;;;;;;;-1.68;100.00;102210.44;10162654;29;20079;-89
2022/03/09 07:23:30;;;;;;;11.00;5.22;;;;;;;-1.53;100.00;102209.03;10193671;29;20036;-89
2022/03/09 07:28:31;;;;;;;11.00;5.45;;;;;;;-1.31;100.00;102212.44;10179361;29;20039;-89
2022/03/09 07:33:31;;;;;;;9.48;5.50;;;;;;;-0.98;100.00;102258.91;10185518;29;20046;-89
2022/03/09 07:38:32;;;;;;;9.07;6.20;;;;;;;-0.59;100.00;102308.38;10200345;29;20075;-89
2022/03/09 07:43:33;;;;;;;8.75;5.38;;;;;;;-0.43;100.00;102322.16;10170223;29;20055;-88
2022/03/09 07:48:34;;;;;;;11.73;5.65;;;;;;;-0.39;100.00;102276.72;10170189;29;20055;-89
2022/03/09 07:53:34;;;;;;;9.50;5.53;;;;;;;-0.19;100.00;102282.03;10170799;29;20035;-88
2022/03/09 07:58:36;;;;;;;12.63;5.65;;;;;;;-0.24;100.00;102253.56;10185305;29;20056;-90
2022/03/09 08:03:39;;;;;;;8.88;5.47;;;;;;;-0.65;100.00;102173.72;10178705;29;20403;-89
2022/03/09 08:08:39;;;;;;;12.07;5.50;;;;;;;0.28;100.00;102292.78;10241401;28;20038;-90
2022/03/09 08:13:40;;;;;;;9.95;5.18;;;;;;;0.85;100.00;102350.31;10199960;29;20038;-89
2022/03/09 08:18:40;;;;;;;11.52;6.25;;;;;;;0.75;100.00;102287.19;10164268;29;20031;-89
2022/03/09 08:23:41;;;;;;;9.18;5.47;;;;;;;0.80;100.00;102239.63;10181152;29;20035;-89
2022/03/09 08:28:42;;;;;;;8.75;4.80;;;;;;;1.34;100.00;102282.91;10172853;29;20058;-89
2022/03/09 08:33:42;;;;;;;9.02;4.57;;;;;;;0.95;100.00;102185.69;10175743;29;20035;-89
2022/03/09 08:38:43;;;;;;;7.80;4.43;;;;;;;1.87;100.00;102288.34;10216511;28;20062;-87
2022/03/09 08:43:43;;;;;;;11.35;5.43;;;;;;;2.23;100.00;102288.97;10210833;29;20019;-87
2022/03/09 08:48:45;;;;;;;7.13;4.30;;;;;;;2.07;100.00;102240.91;10228112;29;20501;-86
2022/03/09 08:53:46;;;;;;;9.40;5.10;;;;;;;2.56;100.00;102276.38;10224687;28;20042;-88
2022/03/09 08:58:47;;;;;;;10.88;5.95;;;;;;;2.81;100.00;102265.50;10180615;29;20106;-87
2022/03/09 09:03:47;;;;;;;8.15;4.82;;;;;;;2.76;100.00;102197.16;10213180;29;20046;-87
2022/03/09 09:08:48;;;;;;;8.63;5.25;;;;;;;3.20;97.52;102213.09;10225920;28;20039;-90
2022/03/09 09:13:48;;;;;;;6.88;4.30;;;;;;;3.41;94.61;102198.94;10205046;29;20034;-90
2022/03/09 09:18:49;;;;;;;18.27;5.75;;;;;;;3.51;94.25;102179.69;10181884;29;20111;-88
2022/03/09 09:23:50;;;;;;;7.43;4.57;;;;;;;3.99;92.43;102210.47;10182117;29;20051;-88
2022/03/09 09:28:50;;;;;;;12.07;5.63;;;;;;;4.18;89.93;102188.22;10194299;29;20175;-87
2022/03/09 09:33:51;;;;;;;8.05;4.28;;;;;;;4.59;90.57;102184.38;10190855;29;20503;-87
2022/03/09 09:38:52;;;;;;;8.40;4.63;;;;;;;5.04;85.43;102177.13;10145241;29;20034;-89
2022/03/09 09:43:52;;;;;;;8.85;5.05;;;;;;;5.93;81.01;102231.78;10178446;29;20469;-89
2022/03/09 09:48:53;;;;;;;8.00;5.05;;;;;;;6.31;77.27;102247.25;10191244;29;20063;-90
2022/03/09 09:53:53;;;;;;;8.45;5.18;;;;;;;6.28;72.79;102190.19;10184713;29;20028;-87
2022/03/09 09:58:54;;;;;;;10.25;5.65;;;;;;;6.45;71.55;102142.41;10205933;29;20123;-87
2022/03/09 10:03:55;;;;;;;8.30;4.95;;;;;;;7.39;71.21;102240.66;10179520;29;20039;-88
2022/03/09 10:09:05;;;;;;;9.43;4.18;;;;;;;7.01;66.21;102122.44;10174350;29;20543;-88
2022/03/09 10:14:06;;;;;;;8.00;4.43;;;;;;;7.95;65.41;102272.66;10176767;29;20036;-87
2022/03/09 10:19:06;;;;;;;9.07;5.80;;;;;;;7.43;64.66;102137.84;10175045;29;20068;-87
2022/03/09 10:24:08;;;;;;;12.15;5.18;;;;;;;8.27;64.24;102229.97;10160194;29;20551;-87
2022/03/09 10:29:11;;;;;;;8.43;5.00;;;;;;;7.87;61.29;102114.66;10178088;29;20066;-87
2022/03/09 10:34:24;;;;;;;11.50;5.07;;;;;;;8.67;62.61;102218.28;10154712;29;20054;-89
2022/03/09 10:39:27;;;;;;;15.35;5.50;;;;;;;8.48;60.39;102154.06;10151174;29;20032;-88
2022/03/09 10:44:44;;;;;;;8.38;4.90;;;;;;;8.32;58.40;102105.03;10166675;29;20078;-87
2022/03/09 10:49:45;;;;;;;16.65;6.43;;;;;;;9.14;59.90;102223.81;10193012;29;20492;-87
2022/03/09 10:54:46;;;;;;;8.43;5.13;;;;;;;8.91;57.52;102139.06;10190996;29;20046;-87
2022/03/09 10:59:48;;;;;;;7.90;4.97;;;;;;;9.29;57.18;102158.47;10198855;28;20028;-87
2022/03/09 11:05:07;;;;;;;9.13;4.93;;;;;;;10.20;56.26;102240.06;10199688;28;20102;-86
2022/03/09 11:10:10;;;;;;;11.35;4.85;;;;;;;9.66;53.26;102106.56;10207147;29;20030;-86
2022/03/09 11:15:12;;;;;;;8.90;5.70;;;;;;;10.34;53.74;102165.72;10188143;29;20070;-86
2022/03/09 11:20:16;;;;;;;7.93;4.97;;;;;;;10.16;54.05;102095.69;10189079;29;20449;-87
2022/03/09 11:25:20;;;;;;;9.60;5.32;;;;;;;10.37;52.19;102099.19;10204465;29;20114;-87
2022/03/09 11:30:22;;;;;;;7.95;5.07;;;;;;;10.94;51.82;102160.59;10202938;29;20050;-87
2022/03/09 11:35:32;;;;;;;10.50;5.63;;;;;;;11.56;50.56;102212.19;10204949;29;20391;-87
2022/03/09 11:40:33;;;;;;;9.30;5.50;;;;;;;11.39;50.46;102154.88;10218380;29;20034;-87
2022/03/09 11:45:33;;;;;;;10.57;5.00;;;;;;;11.60;48.72;102199.63;10192300;29;20079;-86
2022/03/09 11:50:57;;;;;;;9.70;5.72;;;;;;;11.34;49.22;102107.81;10211157;29;20039;-87
2022/03/09 11:56:30;;;;;;;9.48;4.85;;;;;;;12.06;49.39;102206.53;10226020;29;20039;-85
2022/03/09 12:01:30;;;;;;;7.07;5.57;;;;;;;11.58;50.04;102130.06;10186241;29;20424;-87
2022/03/09 12:06:41;;;;;;;8.05;5.78;;;;;;;11.65;51.08;102145.44;10192422;29;20034;-90
2022/03/09 12:12:09;;;;;;;6.88;5.13;;;;;;;12.27;46.30;102178.41;10193272;29;20089;-86
2022/03/09 12:17:10;;;;;;;9.50;5.80;;;;;;;12.31;47.60;102120.81;10205965;29;20027;-87
2022/03/09 12:22:11;;;;;;;7.38;4.80;;;;;;;13.16;45.69;102122.34;10206501;29;20035;-87
2022/03/09 12:27:21;;;;;;;9.82;6.47;;;;;;;14.41;46.01;102116.38;10191191;29;20496;-88
2022/03/09 12:32:23;;;;;;;8.75;5.97;;;;;;;14.89;43.05;102027.09;10195254;29;20511;-88
2022/03/09 12:37:24;;;;;;;9.10;5.90;;;;;;;15.48;39.82;102095.00;10204207;28;20034;-88
2022/03/09 12:42:27;;;;;;;7.63;5.82;;;;;;;15.73;39.40;102064.00;10205285;29;20049;-88
2022/03/09 12:47:28;;;;;;;7.65;5.25;;;;;;;16.96;37.95;102106.84;10203389;29;20432;-88
2022/03/09 12:52:41;;;;;;;9.73;6.28;;;;;;;16.30;36.25;102051.50;10200839;29;20031;-89
2022/03/09 12:57:42;;;;;;;7.95;5.82;;;;;;;16.36;36.79;102055.19;10218420;28;20365;-88
2022/03/09 13:02:44;;;;;;;8.68;5.18;;;;;;;16.36;35.88;102055.19;10199658;29;20055;-88
2022/03/09 13:08:00;;;;;;;7.03;5.82;;;;;;;17.52;35.23;102118.28;10187591;29;20396;-89
2022/03/09 13:13:03;;;;;;;6.60;4.40;;;;;;;17.21;35.60;102000.41;10188985;29;20027;-89
2022/03/09 13:18:03;;;;;;;9.32;5.38;;;;;;;17.64;34.16;102064.34;10205007;29;20035;-88
2022/03/09 13:23:04;;;;;;;8.13;5.57;;;;;;;17.63;33.87;102045.94;10204827;29;20120;-88
2022/03/09 13:28:05;;;;;;;8.45;5.50;;;;;;;17.20;34.28;101997.88;10180040;29;20118;-85
2022/03/09 13:33:10;;;;;;;8.40;5.63;;;;;;;17.48;34.08;102067.03;10181636;29;20028;-86
2022/03/09 13:38:42;;;;;;;6.60;5.05;;;;;;;17.94;33.03;102019.88;10199592;29;20067;-94
2022/03/09 13:43:52;;;;;;;8.50;6.32;;;;;;;17.66;34.64;101971.03;10196180;29;20034;-95
2022/03/09 13:49:14;;;;;;;9.55;6.03;;;;;;;17.62;33.53;101944.03;10176688;29;20088;-89
2022/03/09 13:54:15;;;;;;;8.80;5.78;;;;;;;16.58;33.41;101860.44;10200113;29;20031;-88
2022/03/09 13:59:15;;;;;;;7.85;5.57;;;;;;;17.88;34.15;102032.13;10189968;28;20543;-90
2022/03/09 14:04:16;;;;;;;6.65;5.72;;;;;;;17.82;32.42;102005.34;10206884;29;20034;-90
2022/03/09 14:09:19;;;;;;;6.55;5.50;;;;;;;18.22;32.62;101958.31;10189382;29;20030;-91
2022/03/09 14:14:21;;;;;;;8.32;5.30;;;;;;;19.01;31.32;102071.16;10204665;29;20356;-90
2022/03/09 14:19:24;;;;;;;7.75;6.00;;;;;;;18.15;31.51;101908.44;10203489;29;20066;-90
2022/03/09 14:24:30;;;;;;;14.50;6.33;;;;;;;18.73;32.19;102031.59;10201782;29;20027;-90
2022/03/09 14:29:31;;;;;;;9.05;5.90;;;;;;;17.95;31.49;101960.25;10204754;28;20086;-89
2022/03/09 14:34:32;;;;;;;9.00;6.43;;;;;;;17.65;31.65;101921.19;10165220;29;20038;-91
2022/03/09 14:39:33;;;;;;;9.85;5.85;;;;;;;17.34;31.76;101904.44;10186923;29;20031;-91
2022/03/09 14:44:35;;;;;;;7.18;5.35;;;;;;;18.24;31.30;102046.09;10189135;29;20487;-92
2022/03/09 14:49:39;;;;;;;8.43;6.22;;;;;;;18.34;31.92;102059.22;10205286;29;20097;-91
2022/03/09 14:54:41;;;;;;;10.10;6.25;;;;;;;17.47;32.38;101986.59;10208140;28;20034;-91
2022/03/09 14:59:41;;;;;;;8.15;6.30;;;;;;;18.55;32.62;102074.00;10240537;28;20038;-90
2022/03/09 15:04:42;;;;;;;8.63;5.82;;;;;;;17.93;30.36;101897.56;10208199;29;20403;-91
2022/03/09 15:09:42;;;;;;;7.57;5.93;;;;;;;18.17;29.88;101908.13;10161330;29;20035;-91
2022/03/09 15:14:43;;;;;;;7.53;5.93;;;;;;;18.91;29.37;102090.72;10179631;29;20421;-90
2022/03/09 15:19:44;;;;;;;7.28;5.72;;;;;;;17.67;28.70;101969.09;10225176;29;20126;-91
2022/03/09 15:24:44;;;;;;;7.28;5.40;;;;;;;16.80;30.79;102007.66;10189755;29;20035;-90
2022/03/09 15:29:45;;;;;;;7.55;5.60;;;;;;;16.54;33.25;102141.78;10196760;29;20035;-90
2022/03/09 15:34:48;;;;;;;7.50;5.82;;;;;;;16.09;31.36;102101.31;10180121;29;20479;-88
2022/03/09 15:39:54;;;;;;;7.38;5.65;;;;;;;16.34;31.14;102022.09;10183709;29;20032;-89
2022/03/09 15:44:54;;;;;;;9.02;5.50;;;;;;;17.54;30.95;101993.56;10197381;29;20043;-89
2022/03/09 15:49:55;;;;;;;9.13;5.18;;;;;;;17.88;30.66;102025.69;10197519;28;20101;-89
2022/03/09 15:54:55;;;;;;;8.82;5.50;;;;;;;17.40;30.64;102003.53;10189133;29;20050;-89
2022/03/09 15:59:56;;;;;;;8.10;5.50;;;;;;;16.64;32.58;102004.81;10205096;29;20018;-89
2022/03/09 16:04:57;;;;;;;6.05;5.38;;;;;;;15.91;32.53;101988.63;10188395;29;20031;-89
2022/03/09 16:09:57;;;;;;;8.38;5.30;;;;;;;15.69;33.08;102040.59;10205497;29;20110;-89
2022/03/09 16:14:58;;;;;;;8.48;4.93;;;;;;;14.62;34.27;102024.19;10189235;29;20019;-89
2022/03/09 16:19:58;;;;;;;8.32;5.45;;;;;;;13.75;35.20;102133.38;10191717;29;20038;-89
2022/03/09 16:24:59;;;;;;;9.82;5.47;;;;;;;11.99;37.33;102059.47;10204841;29;20408;-89
2022/03/09 16:30:00;;;;;;;10.02;5.88;;;;;;;10.97;39.08;102046.31;10205728;29;20023;-89
2022/03/09 16:35:06;;;;;;;7.78;5.18;;;;;;;10.24;41.15;102056.91;10191381;29;20023;-88
2022/03/09 16:40:08;;;;;;;9.67;5.73;;;;;;;9.95;44.00;102099.66;10202272;29;20026;-88
2022/03/09 16:45:10;;;;;;;6.93;5.35;;;;;;;9.38;45.11;102080.22;10217086;29;20291;-88
2022/03/09 16:50:12;;;;;;;10.13;5.82;;;;;;;9.17;46.55;102129.97;10194166;29;20457;-88
2022/03/09 16:55:12;;;;;;;11.85;5.35;;;;;;;8.36;46.82;102041.28;10202017;29;20400;-89
2022/03/09 17:00:20;;;;;;;7.80;5.03;;;;;;;8.18;48.30;102094.03;10187899;28;20028;-88
2022/03/09 17:05:21;;;;;;;8.18;5.15;;;;;;;8.03;50.42;102134.50;10201300;29;20031;-88
2022/03/09 17:10:22;;;;;;;8.63;6.03;;;;;;;6.58;52.37;101961.91;10180286;29;20417;-89
2022/03/09 17:15:22;;;;;;;11.90;6.53;;;;;;;7.02;52.84;102100.31;10169353;29;20024;-92
2022/03/09 17:20:23;;;;;;;9.25;5.53;;;;;;;6.04;53.64;102006.31;10170142;29;20054;-92
2022/03/09 17:25:24;;;;;;;9.63;6.10;;;;;;;6.87;56.37;102209.09;10185109;29;20180;-93
2022/03/09 17:30:24;;;;;;;14.40;6.40;;;;;;;5.90;57.38;102100.13;10169988;29;20028;-92
2022/03/09 17:35:25;;;;;;;10.38;6.00;;;;;;;5.10;58.52;102036.31;10170193;29;20049;-93
2022/03/09 17:40:25;;;;;;;11.57;5.57;;;;;;;5.88;60.94;102214.28;10170234;29;20020;-93
2022/03/09 17:45:26;;;;;;;10.07;5.25;;;;;;;5.33;62.39;102170.84;10168757;29;20552;-91
2022/03/09 17:50:27;;;;;;;12.05;6.85;;;;;;;5.10;65.09;102186.47;10168462;29;20123;-91
2022/03/09 17:55:27;;;;;;;9.55;5.63;;;;;;;4.67;66.72;102153.44;10184703;29;20035;-90
2022/03/09 18:00:28;;;;;;;12.10;6.50;;;;;;;4.49;68.30;102181.03;10167899;29;20047;-90
2022/03/09 18:05:29;;;;;;;14.20;6.97;;;;;;;3.95;70.03;102132.81;10184428;29;20043;-91
2022/03/09 18:10:29;;;;;;;13.48;6.63;;;;;;;3.65;71.27;102105.41;10183084;29;20035;-90
2022/03/09 18:15:30;;;;;;;9.98;6.38;;;;;;;3.96;73.65;102211.66;10183168;29;20442;-90
2022/03/09 18:20:30;;;;;;;10.30;6.18;;;;;;;3.21;75.28;102117.69;10167241;29;20031;-91
2022/03/09 18:25:31;;;;;;;11.60;7.00;;;;;;;3.42;77.12;102168.81;10182718;29;20062;-91
2022/03/09 18:30:32;;;;;;;10.52;6.43;;;;;;;3.18;79.42;102158.00;10183273;29;20027;-91
2022/03/09 18:35:32;;;;;;;11.25;6.35;;;;;;;3.35;81.64;102213.25;10166989;29;20024;-91
2022/03/09 18:40:37;;;;;;;14.63;8.80;;;;;;;3.30;84.01;102242.88;10183372;29;20465;-91
2022/03/09 18:45:37;;;;;;;11.68;7.03;;;;;;;2.69;85.75;102153.50;10175862;28;20051;-91
2022/03/09 18:50:38;;;;;;;12.05;7.15;;;;;;;2.99;86.73;102246.28;10209212;28;20062;-90
2022/03/09 18:55:39;;;;;;;14.45;6.78;;;;;;;3.07;88.73;102259.06;10221713;29;20133;-92
2022/03/09 19:00:56;;;;;;;14.82;7.88;;;;;;;1.32;90.57;102024.47;10185908;29;20114;-96
2022/03/09 19:05:57;;;;;;;12.32;7.47;;;;;;;2.05;92.30;102155.13;10206054;29;20491;-92
2022/03/09 19:10:57;;;;;;;12.20;7.28;;;;;;;1.81;95.13;102133.19;10224062;29;20110;-92
2022/03/09 19:15:58;;;;;;;21.52;8.52;;;;;;;2.93;96.23;102344.91;10222744;28;20125;-93
2022/03/09 19:20:58;;;;;;;16.33;8.40;;;;;;;2.36;97.64;102277.66;10233867;28;20049;-92
2022/03/09 19:25:59;;;;;;;11.50;7.82;;;;;;;2.65;100.00;102352.47;10198892;29;20059;-91
2022/03/09 19:30:59;;;;;;;19.48;9.73;;;;;;;1.89;100.00;102248.28;10214213;29;20030;-91
2022/03/09 19:36:00;;;;;;;16.85;8.93;;;;;;;1.75;100.00;102256.03;10204951;29;20043;-91
2022/03/09 19:41:01;;;;;;;15.35;9.55;;;;;;;1.99;100.00;102308.78;10204186;29;20051;-91
2022/03/09 19:46:02;;;;;;;17.77;9.02;;;;;;;0.82;100.00;102139.16;10214679;28;20058;-90
2022/03/09 19:51:03;;;;;;;17.60;11.13;;;;;;;1.42;100.00;102282.97;10196688;29;20031;-91
2022/03/09 19:56:04;;;;;;;18.08;10.93;;;;;;;0.93;100.00;102193.13;10196491;29;20027;-91
2022/03/09 20:01:04;;;;;;;17.17;9.07;;;;;;;0.74;100.00;102171.63;10195941;29;20090;-91
2022/03/09 20:06:05;;;;;;;23.70;10.98;;;;;;;0.77;100.00;102184.88;10196290;29;20555;-91
2022/03/09 20:11:05;;;;;;;20.60;10.48;;;;;;;1.07;100.00;102250.50;10195567;29;20035;-91
2022/03/09 20:16:06;;;;;;;16.55;9.80;;;;;;;1.12;100.00;102283.44;10189192;29;20473;-92
2022/03/09 20:21:06;;;;;;;16.45;9.50;;;;;;;0.64;100.00;102176.28;10195077;29;20031;-92
2022/03/09 20:26:08;;;;;;;16.50;9.30;;;;;;;0.57;100.00;102190.47;10206129;29;20062;-91
2022/03/09 20:31:08;;;;;;;18.13;9.73;;;;;;;-0.16;100.00;102108.53;10226858;29;20091;-93
2022/03/09 20:36:09;;;;;;;19.88;8.60;;;;;;;0.93;100.00;102282.63;10209280;28;20062;-91
2022/03/09 20:41:09;;;;;;;17.30;9.70;;;;;;;0.60;100.00;102236.25;10225846;29;20049;-90
2022/03/09 20:46:10;;;;;;;14.15;8.10;;;;;;;0.44;100.00;102219.81;10210718;29;20093;-91
2022/03/09 20:51:11;;;;;;;20.60;9.43;;;;;;;0.06;100.00;102156.78;10225433;29;20078;-89
2022/03/09 20:56:12;;;;;;;18.23;8.15;;;;;;;1.22;100.00;102381.88;10224812;29;20139;-90
2022/03/09 21:01:13;;;;;;;20.85;9.65;;;;;;;0.40;100.00;102240.09;10217519;28;20019;-90
2022/03/09 21:06:13;;;;;;;18.58;11.18;;;;;;;0.52;100.00;102257.00;10221652;28;20472;-90
2022/03/09 21:11:16;;;;;;;17.42;10.30;;;;;;;0.74;100.00;102318.00;10172837;29;20122;-90
2022/03/09 21:16:19;;;;;;;16.20;9.05;;;;;;;0.48;100.00;102310.63;10210971;29;20035;-90
2022/03/09 21:21:20;;;;;;;17.40;9.63;;;;;;;0.87;100.00;102364.59;10221539;28;20038;-89
2022/03/09 21:26:21;;;;;;;19.55;10.05;;;;;;;-0.23;100.00;102239.06;10217144;28;20026;-89
2022/03/09 21:31:23;;;;;;;17.65;11.00;;;;;;;0.34;100.00;102349.06;10190075;28;20411;-88
2022/03/09 21:36:24;;;;;;;18.35;10.77;;;;;;;-0.25;100.00;102269.94;10198923;28;20019;-89
2022/03/09 21:41:25;;;;;;;21.92;10.50;;;;;;;-0.51;100.00;102223.78;10192207;28;20048;-90
2022/03/09 21:46:28;;;;;;;16.30;10.30;;;;;;;-0.08;100.00;102311.66;10245799;28;20399;-88
2022/03/09 21:51:28;;;;;;;18.77;10.27;;;;;;;0.08;100.00;102348.91;10193658;29;20130;-88
2022/03/09 21:56:29;;;;;;;25.23;10.38;;;;;;;-0.63;100.00;102242.03;10196505;29;20233;-88
2022/03/09 22:01:29;;;;;;;18.23;10.45;;;;;;;-0.42;100.00;102298.66;10203958;29;20091;-89
2022/03/09 22:06:30;;;;;;;19.80;10.15;;;;;;;-0.25;100.00;102338.50;10198959;28;20479;-89
2022/03/09 22:11:30;;;;;;;23.35;12.10;;;;;;;-0.03;100.00;102382.44;10199945;28;20032;-89
2022/03/09 22:16:31;;;;;;;22.13;12.30;;;;;;;-0.10;100.00;102374.06;10242021;28;20555;-89
2022/03/09 22:21:31;;;;;;;22.42;12.77;;;;;;;-0.43;100.00;102349.22;10208991;28;20030;-89
2022/03/09 22:26:32;;;;;;;21.38;13.35;;;;;;;-0.10;100.00;102384.03;10196498;28;20113;-89
2022/03/09 22:31:33;;;;;;;24.20;14.45;;;;;;;-0.45;100.00;102358.47;10200118;28;20031;-89
2022/03/09 22:36:34;;;;;;;22.73;13.70;;;;;;;-0.69;100.00;102285.91;10189447;28;20125;-89
2022/03/09 22:41:35;;;;;;;21.30;12.25;;;;;;;-0.48;100.00;102370.41;10227087;28;20395;-89
2022/03/09 22:46:36;;;;;;;27.08;12.68;;;;;;;-0.83;100.00;102306.13;10226442;28;20081;-91
2022/03/09 22:51:37;;;;;;;20.75;12.45;;;;;;;-1.52;100.00;102177.47;10204347;29;20431;-89
2022/03/09 22:56:38;;;;;;;19.02;11.60;;;;;;;-1.44;100.00;102186.56;10204631;29;20173;-89